createdAt,value
2018-04-01T00:00:31.975Z,37.41
2018-04-01T00:03:02.611Z,36.97
2018-04-01T00:05:33.607Z,35.02
2018-04-01T00:08:04.617Z,31.83
2018-04-01T00:10:35.122Z,33.30
2018-04-01T00:13:06.571Z,35.29
2018-04-01T00:15:37.756Z,35.40
2018-04-01T00:18:07.964Z,34.80
2018-04-01T00:20:37.660Z,33.67
2018-04-01T00:23:08.054Z,31.86
2018-04-01T00:25:37.745Z,34.31
2018-04-01T00:28:08.104Z,35.28
2018-04-01T00:30:38.198Z,33.78
2018-04-01T00:33:08.570Z,34.40
2018-04-01T00:35:38.569Z,34.99
2018-04-01T00:38:08.593Z,34.85
2018-04-01T00:40:38.974Z,34.84
2018-04-01T00:43:08.673Z,35.04
2018-04-01T00:45:38.967Z,35.00
2018-04-01T00:48:08.702Z,35.02
2018-04-01T00:50:38.971Z,34.95
2018-04-01T00:53:08.715Z,35.03
2018-04-01T00:55:40.262Z,35.02
2018-04-01T00:58:10.586Z,34.94
2018-04-01T01:00:40.978Z,35.02
2018-04-01T01:03:10.721Z,34.98
2018-04-01T01:05:40.975Z,35.06
2018-04-01T01:08:10.985Z,35.06
2018-04-01T01:10:40.686Z,35.08
2018-04-01T01:13:11.976Z,35.08
2018-04-01T01:15:42.218Z,35.12
2018-04-01T01:18:12.597Z,35.23
2018-04-01T01:20:43.251Z,35.09
2018-04-01T01:23:13.622Z,35.15
2018-04-01T01:25:45.064Z,35.14
2018-04-01T01:28:16.558Z,35.14
2018-04-01T01:30:49.031Z,35.24
2018-04-01T01:33:18.740Z,35.32
2018-04-01T01:35:49.000Z,35.31
2018-04-01T01:38:19.003Z,35.38
2018-04-01T01:40:48.660Z,35.38
2018-04-01T01:43:18.986Z,35.44
2018-04-01T01:45:49.153Z,35.40
2018-04-01T01:48:19.423Z,35.45
2018-04-01T01:50:49.618Z,35.47
2018-04-01T01:53:20.128Z,35.44
2018-04-01T01:55:50.574Z,35.44
2018-04-01T01:58:20.898Z,35.52
2018-04-01T02:00:51.178Z,35.54
2018-04-01T02:03:21.624Z,35.59
2018-04-01T02:06:56.280Z,35.59
2018-04-01T02:09:26.578Z,35.59
2018-04-01T02:11:56.628Z,35.58
2018-04-01T02:14:27.481Z,35.62
2018-04-01T02:16:57.720Z,35.63
2018-04-01T02:19:28.146Z,35.62
2018-04-01T02:21:59.351Z,35.63
2018-04-01T02:24:29.638Z,35.67
2018-04-01T02:27:01.248Z,35.70
2018-04-01T02:29:31.895Z,35.68
2018-04-01T02:32:02.429Z,35.76
2018-04-01T02:34:33.539Z,35.77
2018-04-01T02:37:04.116Z,35.80
2018-04-01T02:39:35.618Z,35.79
2018-04-01T02:42:06.133Z,35.82
2018-04-01T02:44:36.717Z,35.75
2018-04-01T02:47:07.095Z,35.83
2018-04-01T02:49:37.553Z,35.77
2018-04-01T02:52:07.844Z,35.81
2018-04-01T02:54:38.170Z,35.80
2018-04-01T02:57:09.234Z,35.89
2018-04-01T02:59:39.618Z,35.79
2018-04-01T03:02:10.080Z,35.77
2018-04-01T03:04:39.984Z,35.82
2018-04-01T03:07:09.743Z,35.79
2018-04-01T03:09:40.013Z,35.80
2018-04-01T03:12:09.975Z,35.77
2018-04-01T03:14:39.757Z,35.81
2018-04-01T03:17:10.415Z,35.82
2018-04-01T03:19:40.914Z,35.86
2018-04-01T03:22:12.488Z,35.86
2018-04-01T03:24:43.576Z,35.89
2018-04-01T03:27:14.191Z,35.86
2018-04-01T03:29:44.923Z,35.88
2018-04-01T03:32:15.148Z,35.87
2018-04-01T03:34:45.483Z,35.90
2018-04-01T03:37:15.927Z,35.83
2018-04-01T03:39:46.174Z,35.82
2018-04-01T03:42:16.985Z,35.90
2018-04-01T03:44:48.203Z,35.91
2018-04-01T03:47:19.593Z,35.88
2018-04-01T03:49:50.139Z,35.93
2018-04-01T03:52:21.211Z,35.91
2018-04-01T03:54:53.775Z,35.85
2018-04-01T03:57:24.182Z,35.88
2018-04-01T03:59:54.807Z,35.91
2018-04-01T04:02:24.558Z,35.96
2018-04-01T04:04:54.936Z,35.89
2018-04-01T04:08:53.019Z,35.93
2018-04-01T04:11:22.731Z,36.59
2018-04-01T04:13:53.019Z,37.02
2018-04-01T04:16:22.692Z,37.13
2018-04-01T04:18:52.630Z,37.11
2018-04-01T04:21:23.018Z,37.24
2018-04-01T04:23:53.057Z,37.13
2018-04-01T04:26:22.708Z,37.57
2018-04-01T04:28:53.021Z,37.36
2018-04-01T04:31:23.719Z,37.47
2018-04-01T04:33:54.024Z,37.20
2018-04-01T04:36:24.208Z,37.28
2018-04-01T04:38:55.210Z,37.14
2018-04-01T04:41:25.436Z,37.18
2018-04-01T04:43:55.627Z,37.17
2018-04-01T04:46:26.142Z,37.17
2018-04-01T04:48:57.342Z,37.29
2018-04-01T04:51:27.612Z,37.35
2018-04-01T04:53:57.611Z,37.34
2018-04-01T04:56:28.048Z,37.35
2018-04-01T04:58:57.738Z,37.39
2018-04-01T05:01:28.044Z,37.31
2018-04-01T05:03:58.659Z,37.35
2018-04-01T05:06:29.040Z,37.31
2018-04-01T05:08:59.036Z,37.39
2018-04-01T05:11:29.208Z,37.38
2018-04-01T05:14:00.066Z,37.41
2018-04-01T05:16:29.723Z,37.45
2018-04-01T05:19:00.053Z,37.39
2018-04-01T05:21:29.770Z,37.34
2018-04-01T05:24:00.216Z,37.43
2018-04-01T05:26:30.630Z,37.32
2018-04-01T05:29:00.965Z,37.46
2018-04-01T05:31:31.602Z,37.41
2018-04-01T05:34:01.827Z,37.48
2018-04-01T05:36:32.050Z,37.44
2018-04-01T05:39:03.235Z,37.46
2018-04-01T05:41:33.663Z,37.40
2018-04-01T05:44:04.193Z,37.44
2018-04-01T05:46:34.564Z,37.38
2018-04-01T05:49:04.958Z,37.39
2018-04-01T05:51:35.240Z,37.42
2018-04-01T05:54:05.659Z,37.46
2018-04-01T05:56:36.181Z,37.48
2018-04-01T05:59:07.397Z,37.50
2018-04-01T06:01:37.823Z,37.48
2018-04-01T06:04:09.195Z,37.48
2018-04-01T06:06:39.691Z,37.45
2018-04-01T06:09:10.057Z,37.47
2018-04-01T06:11:40.914Z,37.46
2018-04-01T06:14:11.143Z,37.44
2018-04-01T06:16:41.014Z,37.46
2018-04-01T06:19:12.051Z,37.44
2018-04-01T06:21:41.791Z,39.07
2018-04-01T06:24:12.067Z,37.50
2018-04-01T06:26:41.784Z,37.55
2018-04-01T06:29:12.186Z,37.60
2018-04-01T06:31:42.026Z,37.55
2018-04-01T06:34:11.826Z,37.53
2018-04-01T06:36:42.141Z,37.53
2018-04-01T06:39:12.659Z,37.69
2018-04-01T06:41:43.152Z,37.58
2018-04-01T06:44:12.808Z,37.59
2018-04-01T06:46:42.955Z,37.56
2018-04-01T06:49:13.236Z,37.53
2018-04-01T06:51:43.654Z,37.58
2018-04-01T06:54:14.236Z,37.43
2018-04-01T06:56:44.647Z,37.50
2018-04-01T06:59:14.800Z,37.49
2018-04-01T07:01:45.184Z,37.49
2018-04-01T07:04:15.484Z,37.56
2018-04-01T07:06:46.120Z,37.54
2018-04-01T07:09:15.779Z,37.52
2018-04-01T07:11:46.193Z,37.72
2018-04-01T07:14:16.660Z,37.69
2018-04-01T07:16:47.178Z,37.60
2018-04-01T07:19:17.577Z,37.74
2018-04-01T07:21:47.992Z,37.64
2018-04-01T07:24:18.172Z,37.52
2018-04-01T07:26:48.031Z,37.60
2018-04-01T07:29:18.225Z,37.58
2018-04-01T07:31:48.703Z,37.59
2018-04-01T07:34:19.175Z,37.61
2018-04-01T07:36:49.539Z,37.61
2018-04-01T07:39:19.897Z,37.47
2018-04-01T07:41:50.196Z,37.49
2018-04-01T07:44:20.539Z,37.55
2018-04-01T07:46:50.828Z,37.62
2018-04-01T07:49:21.197Z,37.61
2018-04-01T07:51:51.505Z,37.54
2018-04-01T07:54:21.803Z,37.49
2018-04-01T07:56:52.167Z,37.48
2018-04-01T07:59:22.234Z,37.50
2018-04-01T08:01:52.540Z,37.45
2018-04-01T08:04:23.525Z,37.50
2018-04-01T08:06:53.806Z,37.46
2018-04-01T08:09:25.086Z,37.52
2018-04-01T08:11:54.821Z,37.46
2018-04-01T08:14:25.071Z,37.49
2018-04-01T08:16:56.293Z,37.45
2018-04-01T08:19:26.629Z,37.47
2018-04-01T08:21:56.689Z,37.46
2018-04-01T08:24:27.077Z,37.47
2018-04-01T08:26:56.716Z,37.55
2018-04-01T08:29:27.091Z,37.82
2018-04-01T08:31:56.781Z,37.62
2018-04-01T08:34:27.080Z,38.06
2018-04-01T08:36:57.232Z,37.52
2018-04-01T08:39:27.473Z,37.53
2018-04-01T08:41:57.676Z,37.53
2018-04-01T08:44:28.788Z,37.54
2018-04-01T08:46:59.091Z,37.49
2018-04-01T08:49:28.730Z,37.59
2018-04-01T08:51:58.775Z,37.99
2018-04-01T08:54:29.094Z,37.79
2018-04-01T08:56:59.091Z,37.75
2018-04-01T08:59:28.799Z,37.91
2018-04-01T09:01:59.088Z,38.23
2018-04-01T09:04:28.799Z,37.73
2018-04-01T09:06:59.084Z,37.79
2018-04-01T09:09:28.622Z,37.49
2018-04-01T09:11:59.015Z,37.51
2018-04-01T09:14:30.080Z,37.51
2018-04-01T09:17:00.329Z,37.48
2018-04-01T09:19:30.683Z,37.44
2018-04-01T09:22:01.346Z,37.45
2018-04-01T09:24:32.505Z,37.42
2018-04-01T09:27:03.246Z,37.43
2018-04-01T09:29:34.523Z,37.45
2018-04-01T09:32:05.997Z,37.58
2018-04-01T09:34:36.689Z,37.54
2018-04-01T09:37:08.058Z,37.52
2018-04-01T09:39:38.428Z,37.48
2018-04-01T09:42:09.272Z,37.52
2018-04-01T09:44:40.249Z,37.48
2018-04-01T09:47:11.092Z,37.51
2018-04-01T09:49:41.372Z,37.49
2018-04-01T09:52:12.426Z,37.65
2018-04-01T09:54:43.439Z,37.53
2018-04-01T09:57:14.508Z,37.51
2018-04-01T09:59:45.731Z,37.49
2018-04-01T10:02:20.097Z,37.48
2018-04-01T10:04:53.428Z,37.47
2018-04-01T10:07:26.099Z,37.42
2018-04-01T10:09:57.723Z,37.43
2018-04-01T10:12:30.996Z,37.49
2018-04-01T10:15:04.099Z,37.55
2018-04-01T10:17:36.069Z,37.49
2018-04-01T10:20:09.123Z,37.51
2018-04-01T10:22:41.068Z,37.80
2018-04-01T10:25:12.227Z,37.95
2018-04-01T10:27:45.202Z,37.72
2018-04-01T10:30:17.076Z,37.55
2018-04-01T10:32:49.588Z,37.45
2018-04-01T10:35:22.694Z,37.40
2018-04-01T10:37:55.560Z,37.36
2018-04-01T10:40:28.096Z,37.37
2018-04-01T10:42:59.075Z,37.36
2018-04-01T10:45:31.289Z,37.39
2018-04-01T10:48:04.025Z,37.37
2018-04-01T10:50:36.755Z,37.35
2018-04-01T10:53:09.676Z,37.37
2018-04-01T10:55:40.387Z,37.41
2018-04-01T10:58:11.406Z,37.42
2018-04-01T11:00:42.345Z,37.45
2018-04-01T11:03:13.040Z,37.41
2018-04-01T11:05:44.348Z,37.37
2018-04-01T11:08:15.574Z,37.47
2018-04-01T11:10:46.723Z,37.36
2018-04-01T11:13:17.296Z,37.38
2018-04-01T11:15:48.404Z,37.36
2018-04-01T11:18:19.721Z,37.31
2018-04-01T11:20:51.119Z,37.34
2018-04-01T11:23:22.217Z,37.28
2018-04-01T11:25:52.656Z,37.27
2018-04-01T11:28:23.482Z,37.26
2018-04-01T11:30:54.444Z,37.30
2018-04-01T11:33:25.384Z,37.28
2018-04-01T11:35:56.525Z,37.31
2018-04-01T11:38:27.860Z,37.38
2018-04-01T11:40:58.617Z,37.29
2018-04-01T11:43:29.323Z,37.35
2018-04-01T11:46:00.489Z,37.25
2018-04-01T11:48:31.285Z,37.26
2018-04-01T11:51:02.341Z,37.22
2018-04-01T11:53:33.523Z,37.32
2018-04-01T11:56:04.248Z,37.21
2018-04-01T11:58:35.400Z,37.13
2018-04-01T12:01:06.186Z,37.12
2018-04-01T12:03:37.307Z,37.12
2018-04-01T12:06:08.594Z,37.14
2018-04-01T12:08:39.563Z,37.14
2018-04-01T12:11:11.028Z,37.24
2018-04-01T12:13:42.455Z,37.16
2018-04-01T12:16:13.553Z,37.20
2018-04-01T12:18:45.313Z,37.17
2018-04-01T12:21:16.758Z,37.21
2018-04-01T12:23:48.128Z,37.23
2018-04-01T12:26:19.282Z,37.26
2018-04-01T12:28:50.134Z,37.27
2018-04-01T12:31:21.501Z,37.30
2018-04-01T12:33:52.269Z,37.34
2018-04-01T12:36:23.205Z,37.28
2018-04-01T12:38:54.140Z,37.19
2018-04-01T12:41:25.107Z,37.12
2018-04-01T12:43:55.311Z,37.16
2018-04-01T12:46:26.519Z,37.10
2018-04-01T12:48:57.686Z,37.13
2018-04-01T12:51:29.089Z,37.11
2018-04-01T12:54:00.223Z,37.09
2018-04-01T12:56:31.324Z,37.10
2018-04-01T12:59:02.302Z,37.15
2018-04-01T13:01:33.411Z,37.15
2018-04-01T13:04:04.462Z,37.11
2018-04-01T13:06:35.324Z,37.07
2018-04-01T13:09:06.094Z,37.08
2018-04-01T13:11:37.151Z,37.10
2018-04-01T13:14:07.501Z,37.08
2018-04-01T13:16:38.262Z,36.94
2018-04-01T13:19:10.052Z,36.94
2018-04-01T13:21:41.180Z,36.96
2018-04-01T13:24:12.069Z,36.93
2018-04-01T13:26:42.502Z,36.92
2018-04-01T13:29:13.331Z,36.89
2018-04-01T13:31:44.423Z,36.94
2018-04-01T13:34:15.609Z,36.91
2018-04-01T13:36:48.152Z,37.00
2018-04-01T13:39:19.548Z,37.05
2018-04-01T13:41:50.357Z,36.96
2018-04-01T13:44:21.326Z,37.00
2018-04-01T13:46:52.154Z,36.97
2018-04-01T13:49:23.502Z,36.98
2018-04-01T13:51:54.568Z,37.02
2018-04-01T13:54:25.141Z,37.00
2018-04-01T13:56:56.256Z,36.99
2018-04-01T13:59:26.941Z,37.01
2018-04-01T14:01:58.153Z,36.98
2018-04-01T14:04:29.150Z,36.93
2018-04-01T14:06:59.584Z,36.96
2018-04-01T14:09:30.364Z,36.91
2018-04-01T14:12:01.546Z,36.87
2018-04-01T14:14:32.482Z,36.86
2018-04-01T14:17:03.377Z,36.85
2018-04-01T14:19:34.550Z,36.85
2018-04-01T14:22:05.338Z,36.90
2018-04-01T14:24:36.299Z,36.86
2018-04-01T14:27:07.155Z,36.86
2018-04-01T14:29:38.529Z,36.86
2018-04-01T14:32:09.671Z,36.83
2018-04-01T14:34:40.347Z,36.85
2018-04-01T14:37:11.342Z,36.79
2018-04-01T14:39:42.352Z,36.83
2018-04-01T14:42:13.640Z,36.78
2018-04-01T14:44:44.579Z,36.72
2018-04-01T14:47:15.354Z,36.76
2018-04-01T14:49:46.460Z,36.76
2018-04-01T14:52:17.176Z,36.71
2018-04-01T14:54:48.320Z,36.69
2018-04-01T14:57:19.402Z,36.74
2018-04-01T14:59:50.168Z,36.80
2018-04-01T15:02:21.735Z,36.81
2018-04-01T15:04:53.756Z,36.85
2018-04-01T15:07:25.500Z,36.88
2018-04-01T15:09:56.303Z,36.85
2018-04-01T15:12:27.347Z,36.81
2018-04-01T15:14:58.526Z,36.89
2018-04-01T15:17:29.334Z,36.85
2018-04-01T15:20:00.609Z,36.88
2018-04-01T15:22:31.752Z,36.88
2018-04-01T15:25:03.175Z,36.91
2018-04-01T15:27:33.376Z,36.89
2018-04-01T15:30:04.577Z,36.83
2018-04-01T15:32:35.513Z,36.84
2018-04-01T15:35:06.446Z,36.80
2018-04-01T15:37:37.529Z,36.84
2018-04-01T15:40:09.566Z,36.79
2018-04-01T15:42:40.324Z,36.76
2018-04-01T15:45:11.172Z,36.76
2018-04-01T15:47:42.421Z,36.82
2018-04-01T15:50:13.512Z,36.87
2018-04-01T15:52:44.454Z,36.90
2018-04-01T15:55:15.304Z,36.84
2018-04-01T15:57:46.306Z,36.82
2018-04-01T16:00:16.946Z,36.82
2018-04-01T16:02:48.404Z,36.78
2018-04-01T16:05:19.511Z,36.75
2018-04-01T16:07:50.330Z,36.78
2018-04-01T16:10:21.458Z,36.82
2018-04-01T16:12:52.759Z,36.83
2018-04-01T16:15:24.494Z,36.78
2018-04-01T16:17:55.510Z,36.84
2018-04-01T16:20:26.231Z,36.78
2018-04-01T16:22:57.147Z,36.77
2018-04-01T16:25:28.239Z,36.76
2018-04-01T16:27:58.559Z,36.82
2018-04-01T16:30:30.546Z,37.01
2018-04-01T16:33:02.392Z,36.96
2018-04-01T16:35:33.182Z,37.24
2018-04-01T16:38:50.679Z,37.19
2018-04-01T16:41:21.386Z,37.09
2018-04-01T16:43:52.610Z,38.62
2018-04-01T16:46:24.226Z,36.95
2018-04-01T16:48:54.407Z,36.69
2018-04-01T16:51:25.202Z,36.93
2018-04-01T16:53:56.511Z,37.22
